sensor_id;sensor_type;location;lat;lon;timestamp;temperature;humidity
25352;DHT22;13304;48.464;8.712;2022-11-27T00:01:39;5.70;88.80
25352;DHT22;13304;48.464;8.712;2022-11-27T00:04:05;5.70;88.70
25352;DHT22;13304;48.464;8.712;2022-11-27T00:06:31;5.70;88.70
25352;DHT22;13304;48.464;8.712;2022-11-27T00:08:58;5.70;88.70
25352;DHT22;13304;48.464;8.712;2022-11-27T00:11:25;5.70;88.70
25352;DHT22;13304;48.464;8.712;2022-11-27T00:13:51;5.70;88.80
25352;DHT22;13304;48.464;8.712;2022-11-27T00:16:17;5.70;88.90
25352;DHT22;13304;48.464;8.712;2022-11-27T00:18:43;5.70;88.90
25352;DHT22;13304;48.464;8.712;2022-11-27T00:21:10;5.70;89.10
25352;DHT22;13304;48.464;8.712;2022-11-27T00:23:36;5.70;88.80
25352;DHT22;13304;48.464;8.712;2022-11-27T00:26:02;5.70;89.10
25352;DHT22;13304;48.464;8.712;2022-11-27T00:28:27;5.70;89.10
25352;DHT22;13304;48.464;8.712;2022-11-27T00:30:56;5.70;89.30
25352;DHT22;13304;48.464;8.712;2022-11-27T00:33:22;5.70;89.50
25352;DHT22;13304;48.464;8.712;2022-11-27T00:35:47;5.70;89.70
25352;DHT22;13304;48.464;8.712;2022-11-27T00:38:13;5.70;89.80
25352;DHT22;13304;48.464;8.712;2022-11-27T00:40:39;5.70;89.90
25352;DHT22;13304;48.464;8.712;2022-11-27T00:43:04;5.70;89.90
25352;DHT22;13304;48.464;8.712;2022-11-27T00:45:30;5.80;89.90
25352;DHT22;13304;48.464;8.712;2022-11-27T00:47:55;5.80;90.00
25352;DHT22;13304;48.464;8.712;2022-11-27T00:50:21;5.80;89.90
25352;DHT22;13304;48.464;8.712;2022-11-27T00:52:46;5.80;89.80
25352;DHT22;13304;48.464;8.712;2022-11-27T00:55:12;5.80;89.30
25352;DHT22;13304;48.464;8.712;2022-11-27T00:57:38;5.80;89.10
25352;DHT22;13304;48.464;8.712;2022-11-27T01:00:04;5.80;88.70
25352;DHT22;13304;48.464;8.712;2022-11-27T01:02:30;5.80;89.40
25352;DHT22;13304;48.464;8.712;2022-11-27T01:04:55;5.70;88.50
25352;DHT22;13304;48.464;8.712;2022-11-27T01:07:21;5.70;88.50
25352;DHT22;13304;48.464;8.712;2022-11-27T01:09:46;5.70;88.70
25352;DHT22;13304;48.464;8.712;2022-11-27T01:12:12;5.70;88.80
25352;DHT22;13304;48.464;8.712;2022-11-27T01:14:37;5.70;88.70
25352;DHT22;13304;48.464;8.712;2022-11-27T01:17:03;5.60;88.50
25352;DHT22;13304;48.464;8.712;2022-11-27T01:19:29;5.60;88.60
25352;DHT22;13304;48.464;8.712;2022-11-27T01:21:54;5.60;88.10
25352;DHT22;13304;48.464;8.712;2022-11-27T01:24:20;5.60;88.30
25352;DHT22;13304;48.464;8.712;2022-11-27T01:26:46;5.50;88.10
25352;DHT22;13304;48.464;8.712;2022-11-27T01:29:11;5.50;88.00
25352;DHT22;13304;48.464;8.712;2022-11-27T01:31:37;5.50;87.70
25352;DHT22;13304;48.464;8.712;2022-11-27T01:34:04;5.50;87.80
25352;DHT22;13304;48.464;8.712;2022-11-27T01:36:29;5.40;88.10
25352;DHT22;13304;48.464;8.712;2022-11-27T01:38:56;5.40;88.40
25352;DHT22;13304;48.464;8.712;2022-11-27T01:41:26;5.40;88.30
25352;DHT22;13304;48.464;8.712;2022-11-27T01:43:53;5.40;88.60
25352;DHT22;13304;48.464;8.712;2022-11-27T01:46:27;5.40;88.70
25352;DHT22;13304;48.464;8.712;2022-11-27T01:48:56;5.40;88.90
25352;DHT22;13304;48.464;8.712;2022-11-27T01:51:24;5.40;89.10
25352;DHT22;13304;48.464;8.712;2022-11-27T01:53:50;5.30;89.00
25352;DHT22;13304;48.464;8.712;2022-11-27T01:56:16;5.30;89.10
25352;DHT22;13304;48.464;8.712;2022-11-27T01:58:42;5.30;89.10
25352;DHT22;13304;48.464;8.712;2022-11-27T02:01:08;5.30;89.00
25352;DHT22;13304;48.464;8.712;2022-11-27T02:03:34;5.30;88.90
25352;DHT22;13304;48.464;8.712;2022-11-27T02:05:59;5.30;89.00
25352;DHT22;13304;48.464;8.712;2022-11-27T02:08:25;5.30;88.80
25352;DHT22;13304;48.464;8.712;2022-11-27T02:16:17;5.20;89.00
25352;DHT22;13304;48.464;8.712;2022-11-27T02:29:07;5.20;89.00
25352;DHT22;13304;48.464;8.712;2022-11-27T02:31:40;5.20;89.70
25352;DHT22;13304;48.464;8.712;2022-11-27T02:34:25;5.20;89.10
25352;DHT22;13304;48.464;8.712;2022-11-27T02:36:57;5.20;89.20
25352;DHT22;13304;48.464;8.712;2022-11-27T02:39:26;5.20;89.20
25352;DHT22;13304;48.464;8.712;2022-11-27T02:41:54;5.20;89.30
25352;DHT22;13304;48.464;8.712;2022-11-27T02:44:21;5.20;89.40
25352;DHT22;13304;48.464;8.712;2022-11-27T02:46:48;5.20;89.30
25352;DHT22;13304;48.464;8.712;2022-11-27T02:49:15;5.20;89.30
25352;DHT22;13304;48.464;8.712;2022-11-27T02:51:43;5.20;88.70
25352;DHT22;13304;48.464;8.712;2022-11-27T02:54:12;5.20;88.90
25352;DHT22;13304;48.464;8.712;2022-11-27T02:56:39;5.10;88.80
25352;DHT22;13304;48.464;8.712;2022-11-27T02:59:05;5.10;88.80
25352;DHT22;13304;48.464;8.712;2022-11-27T03:01:33;5.10;88.60
25352;DHT22;13304;48.464;8.712;2022-11-27T03:04:00;5.10;88.70
25352;DHT22;13304;48.464;8.712;2022-11-27T03:06:32;5.10;88.30
25352;DHT22;13304;48.464;8.712;2022-11-27T03:09:03;5.10;88.50
25352;DHT22;13304;48.464;8.712;2022-11-27T03:11:29;5.00;88.30
25352;DHT22;13304;48.464;8.712;2022-11-27T03:13:56;5.00;87.70
25352;DHT22;13304;48.464;8.712;2022-11-27T03:21:35;4.90;88.00
25352;DHT22;13304;48.464;8.712;2022-11-27T03:24:01;4.90;88.00
25352;DHT22;13304;48.464;8.712;2022-11-27T03:26:27;4.80;88.10
25352;DHT22;13304;48.464;8.712;2022-11-27T03:28:53;4.80;88.20
25352;DHT22;13304;48.464;8.712;2022-11-27T03:31:20;4.80;88.10
25352;DHT22;13304;48.464;8.712;2022-11-27T03:33:48;4.80;88.20
25352;DHT22;13304;48.464;8.712;2022-11-27T03:36:15;4.80;88.00
25352;DHT22;13304;48.464;8.712;2022-11-27T03:38:41;4.70;87.80
25352;DHT22;13304;48.464;8.712;2022-11-27T03:41:33;4.70;87.80
25352;DHT22;13304;48.464;8.712;2022-11-27T03:46:55;4.70;87.80
25352;DHT22;13304;48.464;8.712;2022-11-27T03:52:14;4.60;88.10
25352;DHT22;13304;48.464;8.712;2022-11-27T03:54:45;4.60;88.10
25352;DHT22;13304;48.464;8.712;2022-11-27T03:57:19;4.60;88.30
25352;DHT22;13304;48.464;8.712;2022-11-27T03:59:48;4.60;88.50
25352;DHT22;13304;48.464;8.712;2022-11-27T04:02:14;4.60;88.60
25352;DHT22;13304;48.464;8.712;2022-11-27T04:04:42;4.60;88.60
25352;DHT22;13304;48.464;8.712;2022-11-27T04:07:09;4.60;88.80
25352;DHT22;13304;48.464;8.712;2022-11-27T04:09:39;4.60;88.90
25352;DHT22;13304;48.464;8.712;2022-11-27T04:12:05;4.60;89.00
25352;DHT22;13304;48.464;8.712;2022-11-27T04:14:30;4.60;88.80
25352;DHT22;13304;48.464;8.712;2022-11-27T04:16:56;4.60;88.90
25352;DHT22;13304;48.464;8.712;2022-11-27T04:19:21;4.60;89.00
25352;DHT22;13304;48.464;8.712;2022-11-27T04:21:47;4.60;89.10
25352;DHT22;13304;48.464;8.712;2022-11-27T04:24:12;4.60;89.20
25352;DHT22;13304;48.464;8.712;2022-11-27T04:26:38;4.60;89.30
25352;DHT22;13304;48.464;8.712;2022-11-27T04:29:04;4.70;89.20
25352;DHT22;13304;48.464;8.712;2022-11-27T04:31:29;4.70;89.10
25352;DHT22;13304;48.464;8.712;2022-11-27T04:33:55;4.60;89.10
25352;DHT22;13304;48.464;8.712;2022-11-27T04:36:20;4.70;89.40
25352;DHT22;13304;48.464;8.712;2022-11-27T04:38:46;4.70;89.30
25352;DHT22;13304;48.464;8.712;2022-11-27T04:41:11;4.70;89.30
25352;DHT22;13304;48.464;8.712;2022-11-27T04:43:37;4.70;89.30
25352;DHT22;13304;48.464;8.712;2022-11-27T04:46:02;4.70;89.10
25352;DHT22;13304;48.464;8.712;2022-11-27T04:48:28;4.70;88.90
25352;DHT22;13304;48.464;8.712;2022-11-27T04:50:54;4.70;88.70
25352;DHT22;13304;48.464;8.712;2022-11-27T04:53:20;4.70;88.80
25352;DHT22;13304;48.464;8.712;2022-11-27T04:55:45;4.70;88.50
25352;DHT22;13304;48.464;8.712;2022-11-27T04:58:11;4.60;88.20
25352;DHT22;13304;48.464;8.712;2022-11-27T05:00:36;4.60;88.00
25352;DHT22;13304;48.464;8.712;2022-11-27T05:03:02;4.60;87.90
25352;DHT22;13304;48.464;8.712;2022-11-27T05:05:27;4.60;87.90
25352;DHT22;13304;48.464;8.712;2022-11-27T05:07:53;4.50;87.70
25352;DHT22;13304;48.464;8.712;2022-11-27T05:10:18;4.50;87.50
25352;DHT22;13304;48.464;8.712;2022-11-27T05:12:44;4.50;87.50
25352;DHT22;13304;48.464;8.712;2022-11-27T05:15:10;4.40;87.40
25352;DHT22;13304;48.464;8.712;2022-11-27T05:17:35;4.40;87.70
25352;DHT22;13304;48.464;8.712;2022-11-27T05:20:01;4.40;87.60
25352;DHT22;13304;48.464;8.712;2022-11-27T05:22:26;4.30;87.50
25352;DHT22;13304;48.464;8.712;2022-11-27T05:24:52;4.30;87.60
25352;DHT22;13304;48.464;8.712;2022-11-27T05:27:17;4.30;88.50
25352;DHT22;13304;48.464;8.712;2022-11-27T05:29:43;4.20;87.50
25352;DHT22;13304;48.464;8.712;2022-11-27T05:32:09;4.20;87.90
25352;DHT22;13304;48.464;8.712;2022-11-27T05:34:34;4.20;87.70
25352;DHT22;13304;48.464;8.712;2022-11-27T05:37:00;4.20;87.90
25352;DHT22;13304;48.464;8.712;2022-11-27T05:39:25;4.20;88.10
25352;DHT22;13304;48.464;8.712;2022-11-27T05:41:51;4.20;88.40
25352;DHT22;13304;48.464;8.712;2022-11-27T05:44:17;4.20;88.60
25352;DHT22;13304;48.464;8.712;2022-11-27T05:46:42;4.20;88.80
25352;DHT22;13304;48.464;8.712;2022-11-27T05:49:12;4.20;88.90
25352;DHT22;13304;48.464;8.712;2022-11-27T05:51:38;4.20;89.10
25352;DHT22;13304;48.464;8.712;2022-11-27T05:54:03;4.20;89.10
25352;DHT22;13304;48.464;8.712;2022-11-27T05:56:29;4.20;88.70
25352;DHT22;13304;48.464;8.712;2022-11-27T05:58:54;4.20;88.80
25352;DHT22;13304;48.464;8.712;2022-11-27T06:01:20;4.30;88.80
25352;DHT22;13304;48.464;8.712;2022-11-27T06:03:46;4.30;88.70
25352;DHT22;13304;48.464;8.712;2022-11-27T06:06:13;4.20;88.50
25352;DHT22;13304;48.464;8.712;2022-11-27T06:08:39;4.20;88.30
25352;DHT22;13304;48.464;8.712;2022-11-27T06:11:13;4.20;88.10
25352;DHT22;13304;48.464;8.712;2022-11-27T06:13:39;4.20;88.10
25352;DHT22;13304;48.464;8.712;2022-11-27T06:16:05;4.20;87.80
25352;DHT22;13304;48.464;8.712;2022-11-27T06:18:31;4.10;87.10
25352;DHT22;13304;48.464;8.712;2022-11-27T06:20:57;4.10;87.30
25352;DHT22;13304;48.464;8.712;2022-11-27T06:23:22;4.10;87.40
25352;DHT22;13304;48.464;8.712;2022-11-27T06:25:48;4.00;87.50
25352;DHT22;13304;48.464;8.712;2022-11-27T06:28:14;4.10;87.90
25352;DHT22;13304;48.464;8.712;2022-11-27T06:30:39;4.00;88.10
25352;DHT22;13304;48.464;8.712;2022-11-27T06:33:05;4.00;88.50
25352;DHT22;13304;48.464;8.712;2022-11-27T06:35:30;4.00;88.70
25352;DHT22;13304;48.464;8.712;2022-11-27T06:37:56;4.00;89.00
25352;DHT22;13304;48.464;8.712;2022-11-27T06:40:21;4.10;89.30
25352;DHT22;13304;48.464;8.712;2022-11-27T06:42:47;4.10;89.40
25352;DHT22;13304;48.464;8.712;2022-11-27T06:45:13;4.10;89.40
25352;DHT22;13304;48.464;8.712;2022-11-27T06:47:39;4.10;89.50
25352;DHT22;13304;48.464;8.712;2022-11-27T06:50:04;4.20;89.60
25352;DHT22;13304;48.464;8.712;2022-11-27T06:52:30;4.20;89.70
25352;DHT22;13304;48.464;8.712;2022-11-27T06:54:56;4.20;89.90
25352;DHT22;13304;48.464;8.712;2022-11-27T06:57:21;4.30;90.00
25352;DHT22;13304;48.464;8.712;2022-11-27T06:59:47;4.30;90.00
25352;DHT22;13304;48.464;8.712;2022-11-27T07:02:13;4.30;90.10
25352;DHT22;13304;48.464;8.712;2022-11-27T07:04:39;4.30;90.00
25352;DHT22;13304;48.464;8.712;2022-11-27T07:07:04;4.40;90.00
25352;DHT22;13304;48.464;8.712;2022-11-27T07:09:30;4.40;90.00
25352;DHT22;13304;48.464;8.712;2022-11-27T07:11:56;4.50;89.60
25352;DHT22;13304;48.464;8.712;2022-11-27T07:14:21;4.50;89.60
25352;DHT22;13304;48.464;8.712;2022-11-27T07:16:47;4.50;89.50
25352;DHT22;13304;48.464;8.712;2022-11-27T07:19:13;4.50;89.40
25352;DHT22;13304;48.464;8.712;2022-11-27T07:21:39;4.50;89.60
25352;DHT22;13304;48.464;8.712;2022-11-27T07:24:06;4.50;89.90
25352;DHT22;13304;48.464;8.712;2022-11-27T07:26:31;4.60;90.00
25352;DHT22;13304;48.464;8.712;2022-11-27T07:28:57;4.60;89.90
25352;DHT22;13304;48.464;8.712;2022-11-27T07:31:24;4.60;90.00
25352;DHT22;13304;48.464;8.712;2022-11-27T07:33:50;4.60;89.50
25352;DHT22;13304;48.464;8.712;2022-11-27T07:36:17;4.60;89.60
25352;DHT22;13304;48.464;8.712;2022-11-27T07:38:43;4.60;89.70
25352;DHT22;13304;48.464;8.712;2022-11-27T07:41:09;4.70;90.20
25352;DHT22;13304;48.464;8.712;2022-11-27T07:43:35;4.70;90.00
25352;DHT22;13304;48.464;8.712;2022-11-27T07:46:04;4.70;90.00
25352;DHT22;13304;48.464;8.712;2022-11-27T07:48:30;4.70;90.10
25352;DHT22;13304;48.464;8.712;2022-11-27T07:50:56;4.70;90.10
25352;DHT22;13304;48.464;8.712;2022-11-27T07:53:21;4.80;90.10
25352;DHT22;13304;48.464;8.712;2022-11-27T07:55:47;4.80;90.10
25352;DHT22;13304;48.464;8.712;2022-11-27T07:58:12;4.80;90.10
25352;DHT22;13304;48.464;8.712;2022-11-27T08:00:38;4.80;90.00
25352;DHT22;13304;48.464;8.712;2022-11-27T08:03:03;4.80;89.60
25352;DHT22;13304;48.464;8.712;2022-11-27T08:05:31;4.80;89.50
25352;DHT22;13304;48.464;8.712;2022-11-27T08:07:58;4.80;88.70
25352;DHT22;13304;48.464;8.712;2022-11-27T08:10:25;4.80;89.00
25352;DHT22;13304;48.464;8.712;2022-11-27T08:12:50;4.80;89.40
25352;DHT22;13304;48.464;8.712;2022-11-27T08:15:16;4.80;89.60
25352;DHT22;13304;48.464;8.712;2022-11-27T08:17:41;4.80;89.80
25352;DHT22;13304;48.464;8.712;2022-11-27T08:20:07;4.90;90.00
25352;DHT22;13304;48.464;8.712;2022-11-27T08:22:32;4.80;90.10
25352;DHT22;13304;48.464;8.712;2022-11-27T08:24:58;4.90;90.10
25352;DHT22;13304;48.464;8.712;2022-11-27T08:27:24;4.90;90.20
25352;DHT22;13304;48.464;8.712;2022-11-27T08:29:49;4.90;90.30
25352;DHT22;13304;48.464;8.712;2022-11-27T08:32:15;5.00;90.30
25352;DHT22;13304;48.464;8.712;2022-11-27T08:34:40;5.00;90.40
25352;DHT22;13304;48.464;8.712;2022-11-27T08:37:06;5.00;90.00
25352;DHT22;13304;48.464;8.712;2022-11-27T08:39:31;5.10;90.00
25352;DHT22;13304;48.464;8.712;2022-11-27T08:41:57;5.10;90.00
25352;DHT22;13304;48.464;8.712;2022-11-27T08:44:23;5.10;89.80
25352;DHT22;13304;48.464;8.712;2022-11-27T08:46:48;5.10;89.80
25352;DHT22;13304;48.464;8.712;2022-11-27T08:49:14;5.20;90.00
25352;DHT22;13304;48.464;8.712;2022-11-27T08:51:39;5.20;90.00
25352;DHT22;13304;48.464;8.712;2022-11-27T08:54:05;5.20;90.10
25352;DHT22;13304;48.464;8.712;2022-11-27T08:56:31;5.20;90.10
25352;DHT22;13304;48.464;8.712;2022-11-27T08:58:56;5.20;90.20
25352;DHT22;13304;48.464;8.712;2022-11-27T09:01:23;5.20;90.20
25352;DHT22;13304;48.464;8.712;2022-11-27T09:03:49;5.30;90.30
25352;DHT22;13304;48.464;8.712;2022-11-27T09:06:15;5.30;90.30
25352;DHT22;13304;48.464;8.712;2022-11-27T09:08:42;5.30;90.50
25352;DHT22;13304;48.464;8.712;2022-11-27T09:11:08;5.30;90.40
25352;DHT22;13304;48.464;8.712;2022-11-27T09:13:34;5.40;90.30
25352;DHT22;13304;48.464;8.712;2022-11-27T09:16:01;5.40;90.30
25352;DHT22;13304;48.464;8.712;2022-11-27T09:18:27;5.50;90.30
25352;DHT22;13304;48.464;8.712;2022-11-27T09:20:53;5.50;90.40
25352;DHT22;13304;48.464;8.712;2022-11-27T09:23:19;5.50;90.40
25352;DHT22;13304;48.464;8.712;2022-11-27T09:25:45;5.50;90.40
25352;DHT22;13304;48.464;8.712;2022-11-27T09:28:10;5.60;90.40
25352;DHT22;13304;48.464;8.712;2022-11-27T09:30:38;5.60;90.40
25352;DHT22;13304;48.464;8.712;2022-11-27T09:33:03;5.60;90.40
25352;DHT22;13304;48.464;8.712;2022-11-27T09:35:29;5.60;90.40
25352;DHT22;13304;48.464;8.712;2022-11-27T09:37:55;5.60;90.30
25352;DHT22;13304;48.464;8.712;2022-11-27T09:40:20;5.70;90.50
25352;DHT22;13304;48.464;8.712;2022-11-27T09:42:48;5.70;90.60
25352;DHT22;13304;48.464;8.712;2022-11-27T09:45:14;5.70;90.60
25352;DHT22;13304;48.464;8.712;2022-11-27T09:47:47;5.70;90.70
25352;DHT22;13304;48.464;8.712;2022-11-27T09:50:15;5.80;90.80
25352;DHT22;13304;48.464;8.712;2022-11-27T09:52:42;5.80;90.90
25352;DHT22;13304;48.464;8.712;2022-11-27T09:55:53;5.90;91.00
25352;DHT22;13304;48.464;8.712;2022-11-27T09:58:21;5.90;90.90
25352;DHT22;13304;48.464;8.712;2022-11-27T10:00:45;6.00;90.70
25352;DHT22;13304;48.464;8.712;2022-11-27T10:03:14;6.00;90.90
25352;DHT22;13304;48.464;8.712;2022-11-27T10:19:01;6.30;90.50
25352;DHT22;13304;48.464;8.712;2022-11-27T10:26:39;6.40;90.70
25352;DHT22;13304;48.464;8.712;2022-11-27T10:31:44;6.50;90.90
25352;DHT22;13304;48.464;8.712;2022-11-27T10:36:52;6.60;91.00
25352;DHT22;13304;48.464;8.712;2022-11-27T10:42:09;6.80;91.00
25352;DHT22;13304;48.464;8.712;2022-11-27T10:44:39;6.80;90.40
25352;DHT22;13304;48.464;8.712;2022-11-27T10:47:12;6.90;90.70
25352;DHT22;13304;48.464;8.712;2022-11-27T10:49:39;7.00;90.50
25352;DHT22;13304;48.464;8.712;2022-11-27T10:52:05;7.00;90.20
25352;DHT22;13304;48.464;8.712;2022-11-27T10:54:35;7.10;90.20
25352;DHT22;13304;48.464;8.712;2022-11-27T10:59:34;7.10;88.90
25352;DHT22;13304;48.464;8.712;2022-11-27T11:02:02;7.20;89.90
25352;DHT22;13304;48.464;8.712;2022-11-27T11:04:30;7.20;90.00
25352;DHT22;13304;48.464;8.712;2022-11-27T11:06:56;7.30;90.40
25352;DHT22;13304;48.464;8.712;2022-11-27T11:09:23;7.30;90.20
25352;DHT22;13304;48.464;8.712;2022-11-27T11:11:50;7.30;90.50
25352;DHT22;13304;48.464;8.712;2022-11-27T11:14:21;7.40;90.50
25352;DHT22;13304;48.464;8.712;2022-11-27T11:16:47;7.40;90.60
25352;DHT22;13304;48.464;8.712;2022-11-27T11:21:54;7.50;90.40
25352;DHT22;13304;48.464;8.712;2022-11-27T11:24:29;7.60;90.60
25352;DHT22;13304;48.464;8.712;2022-11-27T11:26:56;7.70;90.40
25352;DHT22;13304;48.464;8.712;2022-11-27T11:29:28;7.70;90.30
25352;DHT22;13304;48.464;8.712;2022-11-27T11:31:55;7.70;89.40
25352;DHT22;13304;48.464;8.712;2022-11-27T11:34:25;7.80;89.70
25352;DHT22;13304;48.464;8.712;2022-11-27T11:36:59;7.80;88.70
25352;DHT22;13304;48.464;8.712;2022-11-27T11:39:27;7.80;89.50
25352;DHT22;13304;48.464;8.712;2022-11-27T11:41:52;7.80;89.30
25352;DHT22;13304;48.464;8.712;2022-11-27T11:44:23;7.80;89.00
25352;DHT22;13304;48.464;8.712;2022-11-27T11:46:51;7.80;89.10
25352;DHT22;13304;48.464;8.712;2022-11-27T11:49:22;7.90;89.20
25352;DHT22;13304;48.464;8.712;2022-11-27T11:51:55;7.90;88.70
25352;DHT22;13304;48.464;8.712;2022-11-27T11:56:48;7.90;89.20
25352;DHT22;13304;48.464;8.712;2022-11-27T12:02:15;8.00;90.10
25352;DHT22;13304;48.464;8.712;2022-11-27T12:07:15;8.00;88.20
25352;DHT22;13304;48.464;8.712;2022-11-27T12:25:25;8.10;87.60
25352;DHT22;13304;48.464;8.712;2022-11-27T12:30:26;8.20;88.60
25352;DHT22;13304;48.464;8.712;2022-11-27T12:40:24;8.30;87.10
25352;DHT22;13304;48.464;8.712;2022-11-27T12:45:35;8.40;86.80
25352;DHT22;13304;48.464;8.712;2022-11-27T12:48:10;8.50;88.40
25352;DHT22;13304;48.464;8.712;2022-11-27T12:50:39;8.50;86.90
25352;DHT22;13304;48.464;8.712;2022-11-27T12:53:15;8.50;85.00
25352;DHT22;13304;48.464;8.712;2022-11-27T12:55:43;8.50;85.80
25352;DHT22;13304;48.464;8.712;2022-11-27T12:58:16;8.50;86.90
25352;DHT22;13304;48.464;8.712;2022-11-27T13:00:44;8.50;86.70
25352;DHT22;13304;48.464;8.712;2022-11-27T13:03:27;8.50;86.00
25352;DHT22;13304;48.464;8.712;2022-11-27T13:05:57;8.50;84.50
25352;DHT22;13304;48.464;8.712;2022-11-27T13:08:35;8.50;85.30
25352;DHT22;13304;48.464;8.712;2022-11-27T13:11:04;8.60;86.70
25352;DHT22;13304;48.464;8.712;2022-11-27T13:16:34;8.60;83.90
25352;DHT22;13304;48.464;8.712;2022-11-27T13:21:37;8.50;85.40
25352;DHT22;13304;48.464;8.712;2022-11-27T13:24:03;8.60;85.90
25352;DHT22;13304;48.464;8.712;2022-11-27T13:26:40;8.60;86.00
25352;DHT22;13304;48.464;8.712;2022-11-27T13:31:41;8.60;84.20
25352;DHT22;13304;48.464;8.712;2022-11-27T13:34:08;8.60;84.20
25352;DHT22;13304;48.464;8.712;2022-11-27T13:36:40;8.50;84.90
25352;DHT22;13304;48.464;8.712;2022-11-27T13:39:19;8.50;84.60
25352;DHT22;13304;48.464;8.712;2022-11-27T13:41:47;8.50;83.90
25352;DHT22;13304;48.464;8.712;2022-11-27T13:44:20;8.50;85.20
25352;DHT22;13304;48.464;8.712;2022-11-27T13:46:48;8.50;85.10
25352;DHT22;13304;48.464;8.712;2022-11-27T13:49:36;8.50;84.40
25352;DHT22;13304;48.464;8.712;2022-11-27T13:52:12;8.50;84.50
25352;DHT22;13304;48.464;8.712;2022-11-27T13:54:51;8.50;84.30
25352;DHT22;13304;48.464;8.712;2022-11-27T13:57:17;8.50;83.90
25352;DHT22;13304;48.464;8.712;2022-11-27T14:00:03;8.50;84.90
25352;DHT22;13304;48.464;8.712;2022-11-27T14:02:46;8.50;85.30
25352;DHT22;13304;48.464;8.712;2022-11-27T14:05:12;8.50;84.40
25352;DHT22;13304;48.464;8.712;2022-11-27T14:07:43;8.50;85.20
25352;DHT22;13304;48.464;8.712;2022-11-27T14:10:20;8.60;86.00
25352;DHT22;13304;48.464;8.712;2022-11-27T14:12:59;8.60;86.20
25352;DHT22;13304;48.464;8.712;2022-11-27T14:15:27;8.60;86.30
25352;DHT22;13304;48.464;8.712;2022-11-27T14:20:29;8.60;84.80
25352;DHT22;13304;48.464;8.712;2022-11-27T14:22:56;8.60;84.70
25352;DHT22;13304;48.464;8.712;2022-11-27T14:27:52;8.50;83.60
25352;DHT22;13304;48.464;8.712;2022-11-27T14:30:33;8.50;84.30
25352;DHT22;13304;48.464;8.712;2022-11-27T14:33:01;8.50;84.80
25352;DHT22;13304;48.464;8.712;2022-11-27T14:35:27;8.50;85.00
25352;DHT22;13304;48.464;8.712;2022-11-27T14:37:52;8.50;85.80
25352;DHT22;13304;48.464;8.712;2022-11-27T14:40:33;8.50;86.00
25352;DHT22;13304;48.464;8.712;2022-11-27T14:43:15;8.50;86.30
25352;DHT22;13304;48.464;8.712;2022-11-27T14:45:44;8.50;86.50
25352;DHT22;13304;48.464;8.712;2022-11-27T14:48:14;8.40;85.70
25352;DHT22;13304;48.464;8.712;2022-11-27T14:50:40;8.40;85.30
25352;DHT22;13304;48.464;8.712;2022-11-27T14:53:08;8.40;84.50
25352;DHT22;13304;48.464;8.712;2022-11-27T14:55:34;8.40;85.70
25352;DHT22;13304;48.464;8.712;2022-11-27T14:58:00;8.40;85.50
25352;DHT22;13304;48.464;8.712;2022-11-27T15:00:25;8.40;86.30
25352;DHT22;13304;48.464;8.712;2022-11-27T15:02:52;8.30;85.40
25352;DHT22;13304;48.464;8.712;2022-11-27T15:05:22;8.30;85.30
25352;DHT22;13304;48.464;8.712;2022-11-27T15:07:49;8.30;85.40
25352;DHT22;13304;48.464;8.712;2022-11-27T15:12:45;8.30;85.60
25352;DHT22;13304;48.464;8.712;2022-11-27T15:15:14;8.30;85.60
25352;DHT22;13304;48.464;8.712;2022-11-27T15:17:43;8.30;85.30
25352;DHT22;13304;48.464;8.712;2022-11-27T15:20:17;8.20;85.30
25352;DHT22;13304;48.464;8.712;2022-11-27T15:22:55;8.20;85.50
25352;DHT22;13304;48.464;8.712;2022-11-27T15:27:53;8.20;85.60
25352;DHT22;13304;48.464;8.712;2022-11-27T15:30:19;8.20;85.60
25352;DHT22;13304;48.464;8.712;2022-11-27T15:32:45;8.20;85.50
25352;DHT22;13304;48.464;8.712;2022-11-27T15:35:27;8.20;85.70
25352;DHT22;13304;48.464;8.712;2022-11-27T15:37:57;8.20;86.30
25352;DHT22;13304;48.464;8.712;2022-11-27T15:40:35;8.20;86.60
25352;DHT22;13304;48.464;8.712;2022-11-27T15:43:01;8.20;85.90
25352;DHT22;13304;48.464;8.712;2022-11-27T15:45:38;8.20;86.10
25352;DHT22;13304;48.464;8.712;2022-11-27T15:48:04;8.20;86.40
25352;DHT22;13304;48.464;8.712;2022-11-27T15:50:29;8.10;86.30
25352;DHT22;13304;48.464;8.712;2022-11-27T15:53:08;8.10;86.10
25352;DHT22;13304;48.464;8.712;2022-11-27T15:55:34;8.10;86.40
25352;DHT22;13304;48.464;8.712;2022-11-27T15:58:00;8.10;87.10
25352;DHT22;13304;48.464;8.712;2022-11-27T16:00:26;8.10;86.60
25352;DHT22;13304;48.464;8.712;2022-11-27T16:02:51;8.10;86.50
25352;DHT22;13304;48.464;8.712;2022-11-27T16:05:17;8.10;86.70
25352;DHT22;13304;48.464;8.712;2022-11-27T16:07:43;8.10;86.30
25352;DHT22;13304;48.464;8.712;2022-11-27T16:10:09;8.10;86.70
25352;DHT22;13304;48.464;8.712;2022-11-27T16:12:35;8.10;86.70
25352;DHT22;13304;48.464;8.712;2022-11-27T16:15:00;8.10;86.80
25352;DHT22;13304;48.464;8.712;2022-11-27T16:17:26;8.10;86.50
25352;DHT22;13304;48.464;8.712;2022-11-27T16:19:52;8.10;86.50
25352;DHT22;13304;48.464;8.712;2022-11-27T16:22:17;8.00;86.50
25352;DHT22;13304;48.464;8.712;2022-11-27T16:24:43;8.00;85.80
25352;DHT22;13304;48.464;8.712;2022-11-27T16:27:09;8.00;86.20
25352;DHT22;13304;48.464;8.712;2022-11-27T16:29:36;8.00;86.30
25352;DHT22;13304;48.464;8.712;2022-11-27T16:32:02;7.90;85.90
25352;DHT22;13304;48.464;8.712;2022-11-27T16:34:28;7.90;85.70
25352;DHT22;13304;48.464;8.712;2022-11-27T16:36:54;7.90;86.20
25352;DHT22;13304;48.464;8.712;2022-11-27T16:39:20;7.90;86.50
25352;DHT22;13304;48.464;8.712;2022-11-27T16:41:45;7.90;86.10
25352;DHT22;13304;48.464;8.712;2022-11-27T16:44:18;7.80;86.20
25352;DHT22;13304;48.464;8.712;2022-11-27T16:46:44;7.80;86.50
25352;DHT22;13304;48.464;8.712;2022-11-27T16:49:10;7.80;86.30
25352;DHT22;13304;48.464;8.712;2022-11-27T16:51:36;7.80;86.70
25352;DHT22;13304;48.464;8.712;2022-11-27T16:54:04;7.80;86.90
25352;DHT22;13304;48.464;8.712;2022-11-27T16:56:31;7.70;87.10
25352;DHT22;13304;48.464;8.712;2022-11-27T16:58:57;7.80;87.50
25352;DHT22;13304;48.464;8.712;2022-11-27T17:01:23;7.70;87.30
25352;DHT22;13304;48.464;8.712;2022-11-27T17:03:49;7.80;87.60
25352;DHT22;13304;48.464;8.712;2022-11-27T17:06:25;7.70;87.80
25352;DHT22;13304;48.464;8.712;2022-11-27T17:08:55;7.80;88.10
25352;DHT22;13304;48.464;8.712;2022-11-27T17:11:21;7.80;88.10
25352;DHT22;13304;48.464;8.712;2022-11-27T17:13:50;7.80;88.20
25352;DHT22;13304;48.464;8.712;2022-11-27T17:16:17;7.80;88.30
25352;DHT22;13304;48.464;8.712;2022-11-27T17:18:42;7.80;88.30
25352;DHT22;13304;48.464;8.712;2022-11-27T17:21:17;7.80;88.30
25352;DHT22;13304;48.464;8.712;2022-11-27T17:23:43;7.80;88.00
25352;DHT22;13304;48.464;8.712;2022-11-27T17:26:12;7.80;87.80
25352;DHT22;13304;48.464;8.712;2022-11-27T17:28:40;7.70;87.50
25352;DHT22;13304;48.464;8.712;2022-11-27T17:31:10;7.70;87.90
25352;DHT22;13304;48.464;8.712;2022-11-27T17:33:36;7.70;88.10
25352;DHT22;13304;48.464;8.712;2022-11-27T17:36:02;7.70;88.20
25352;DHT22;13304;48.464;8.712;2022-11-27T17:38:34;7.80;88.30
25352;DHT22;13304;48.464;8.712;2022-11-27T17:41:01;7.70;88.40